sensor_id;sensor_type;location;lat;lon;timestamp;temperature;humidity
27266;DHT22;14766;51.380;13.762;2022-09-09T00:00:48;20.00;61.20
27266;DHT22;14766;51.380;13.762;2022-09-09T00:03:53;20.00;61.20
27266;DHT22;14766;51.380;13.762;2022-09-09T00:06:24;20.00;61.10
27266;DHT22;14766;51.380;13.762;2022-09-09T00:09:17;20.00;60.90
27266;DHT22;14766;51.380;13.762;2022-09-09T00:14:47;20.00;60.90
27266;DHT22;14766;51.380;13.762;2022-09-09T00:17:38;20.00;60.90
27266;DHT22;14766;51.380;13.762;2022-09-09T00:20:21;19.90;61.00
27266;DHT22;14766;51.380;13.762;2022-09-09T00:23:01;19.90;60.80
27266;DHT22;14766;51.380;13.762;2022-09-09T00:25:40;19.90;61.00
27266;DHT22;14766;51.380;13.762;2022-09-09T00:28:17;19.90;60.80
27266;DHT22;14766;51.380;13.762;2022-09-09T00:30:46;19.90;61.00
27266;DHT22;14766;51.380;13.762;2022-09-09T00:33:23;19.90;60.90
27266;DHT22;14766;51.380;13.762;2022-09-09T00:35:53;19.80;61.00
27266;DHT22;14766;51.380;13.762;2022-09-09T00:38:37;19.90;61.10
27266;DHT22;14766;51.380;13.762;2022-09-09T00:41:19;19.80;61.00
27266;DHT22;14766;51.380;13.762;2022-09-09T00:51:04;19.80;60.90
27266;DHT22;14766;51.380;13.762;2022-09-09T00:53:39;19.80;60.60
27266;DHT22;14766;51.380;13.762;2022-09-09T00:56:13;19.80;60.70
27266;DHT22;14766;51.380;13.762;2022-09-09T00:58:46;19.70;60.70
27266;DHT22;14766;51.380;13.762;2022-09-09T01:01:18;19.70;60.70
27266;DHT22;14766;51.380;13.762;2022-09-09T01:03:54;19.70;60.60
27266;DHT22;14766;51.380;13.762;2022-09-09T01:06:33;19.70;60.80
27266;DHT22;14766;51.380;13.762;2022-09-09T01:14:48;19.70;60.70
27266;DHT22;14766;51.380;13.762;2022-09-09T01:17:22;19.70;60.70
27266;DHT22;14766;51.380;13.762;2022-09-09T01:26:08;19.70;60.50
27266;DHT22;14766;51.380;13.762;2022-09-09T01:28:39;19.70;60.40
27266;DHT22;14766;51.380;13.762;2022-09-09T01:31:15;19.70;60.40
27266;DHT22;14766;51.380;13.762;2022-09-09T01:33:46;19.70;60.40
27266;DHT22;14766;51.380;13.762;2022-09-09T01:36:31;19.70;60.50
27266;DHT22;14766;51.380;13.762;2022-09-09T01:39:02;19.70;60.50
27266;DHT22;14766;51.380;13.762;2022-09-09T01:41:30;19.60;60.30
27266;DHT22;14766;51.380;13.762;2022-09-09T01:44:08;19.60;60.40
27266;DHT22;14766;51.380;13.762;2022-09-09T01:46:38;19.60;60.40
27266;DHT22;14766;51.380;13.762;2022-09-09T01:49:12;19.60;60.50
27266;DHT22;14766;51.380;13.762;2022-09-09T01:51:40;19.60;60.50
27266;DHT22;14766;51.380;13.762;2022-09-09T01:54:12;19.60;60.50
27266;DHT22;14766;51.380;13.762;2022-09-09T01:57:17;19.60;60.40
27266;DHT22;14766;51.380;13.762;2022-09-09T02:02:39;19.60;60.30
27266;DHT22;14766;51.380;13.762;2022-09-09T02:05:40;19.50;60.20
27266;DHT22;14766;51.380;13.762;2022-09-09T02:08:49;19.50;60.20
27266;DHT22;14766;51.380;13.762;2022-09-09T02:11:19;19.50;60.10
27266;DHT22;14766;51.380;13.762;2022-09-09T02:14:08;19.50;60.30
27266;DHT22;14766;51.380;13.762;2022-09-09T02:16:56;19.50;60.20
27266;DHT22;14766;51.380;13.762;2022-09-09T02:19:48;19.50;60.40
27266;DHT22;14766;51.380;13.762;2022-09-09T02:22:27;19.50;60.40
27266;DHT22;14766;51.380;13.762;2022-09-09T02:24:59;19.40;60.30
27266;DHT22;14766;51.380;13.762;2022-09-09T02:27:29;19.40;60.50
27266;DHT22;14766;51.380;13.762;2022-09-09T02:29:59;19.40;60.60
27266;DHT22;14766;51.380;13.762;2022-09-09T02:32:42;19.40;60.50
27266;DHT22;14766;51.380;13.762;2022-09-09T02:35:21;19.40;60.50
27266;DHT22;14766;51.380;13.762;2022-09-09T02:37:52;19.50;60.70
27266;DHT22;14766;51.380;13.762;2022-09-09T02:40:21;19.40;60.70
27266;DHT22;14766;51.380;13.762;2022-09-09T02:42:56;19.50;60.60
27266;DHT22;14766;51.380;13.762;2022-09-09T02:45:28;19.40;60.50
27266;DHT22;14766;51.380;13.762;2022-09-09T02:48:14;19.50;60.60
27266;DHT22;14766;51.380;13.762;2022-09-09T02:53:24;19.40;60.30
27266;DHT22;14766;51.380;13.762;2022-09-09T02:56:04;19.40;60.40
27266;DHT22;14766;51.380;13.762;2022-09-09T02:58:37;19.40;60.50
27266;DHT22;14766;51.380;13.762;2022-09-09T03:01:06;19.40;60.60
27266;DHT22;14766;51.380;13.762;2022-09-09T03:03:33;19.40;60.60
27266;DHT22;14766;51.380;13.762;2022-09-09T03:06:05;19.40;60.50
27266;DHT22;14766;51.380;13.762;2022-09-09T03:08:34;19.40;60.50
27266;DHT22;14766;51.380;13.762;2022-09-09T03:11:01;19.40;60.60
27266;DHT22;14766;51.380;13.762;2022-09-09T03:13:32;19.40;60.60
27266;DHT22;14766;51.380;13.762;2022-09-09T03:16:00;19.40;60.50
27266;DHT22;14766;51.380;13.762;2022-09-09T03:18:31;19.40;60.60
27266;DHT22;14766;51.380;13.762;2022-09-09T03:20:59;19.40;60.60
27266;DHT22;14766;51.380;13.762;2022-09-09T03:23:28;19.30;60.50
27266;DHT22;14766;51.380;13.762;2022-09-09T03:25:59;19.30;60.40
27266;DHT22;14766;51.380;13.762;2022-09-09T03:28:36;19.30;60.40
27266;DHT22;14766;51.380;13.762;2022-09-09T03:31:06;19.30;60.50
27266;DHT22;14766;51.380;13.762;2022-09-09T03:33:38;19.30;60.40
27266;DHT22;14766;51.380;13.762;2022-09-09T03:36:06;19.30;60.40
27266;DHT22;14766;51.380;13.762;2022-09-09T03:38:35;19.30;60.60
27266;DHT22;14766;51.380;13.762;2022-09-09T03:41:04;19.30;60.70
27266;DHT22;14766;51.380;13.762;2022-09-09T03:43:33;19.30;60.70
27266;DHT22;14766;51.380;13.762;2022-09-09T03:46:02;19.30;60.70
27266;DHT22;14766;51.380;13.762;2022-09-09T03:48:30;19.30;60.60
27266;DHT22;14766;51.380;13.762;2022-09-09T03:50:59;19.20;60.60
27266;DHT22;14766;51.380;13.762;2022-09-09T03:53:31;19.20;60.60
27266;DHT22;14766;51.380;13.762;2022-09-09T03:55:59;19.10;60.60
27266;DHT22;14766;51.380;13.762;2022-09-09T03:58:28;19.10;60.60
27266;DHT22;14766;51.380;13.762;2022-09-09T04:01:12;19.00;60.70
27266;DHT22;14766;51.380;13.762;2022-09-09T04:03:46;19.00;60.90
27266;DHT22;14766;51.380;13.762;2022-09-09T04:06:14;18.90;60.90
27266;DHT22;14766;51.380;13.762;2022-09-09T04:08:45;18.90;61.00
27266;DHT22;14766;51.380;13.762;2022-09-09T04:11:15;18.80;60.90
27266;DHT22;14766;51.380;13.762;2022-09-09T04:13:44;18.80;61.00
27266;DHT22;14766;51.380;13.762;2022-09-09T04:16:12;18.80;61.30
27266;DHT22;14766;51.380;13.762;2022-09-09T04:18:43;18.70;61.40
27266;DHT22;14766;51.380;13.762;2022-09-09T04:21:11;18.70;61.60
27266;DHT22;14766;51.380;13.762;2022-09-09T04:23:39;18.70;61.70
27266;DHT22;14766;51.380;13.762;2022-09-09T04:26:07;18.70;61.80
27266;DHT22;14766;51.380;13.762;2022-09-09T04:28:37;18.70;61.90
27266;DHT22;14766;51.380;13.762;2022-09-09T04:31:16;18.70;61.80
27266;DHT22;14766;51.380;13.762;2022-09-09T04:33:46;18.70;61.90
27266;DHT22;14766;51.380;13.762;2022-09-09T04:36:14;18.70;61.80
27266;DHT22;14766;51.380;13.762;2022-09-09T04:38:41;18.70;61.90
27266;DHT22;14766;51.380;13.762;2022-09-09T04:41:08;18.70;62.00
27266;DHT22;14766;51.380;13.762;2022-09-09T04:43:40;18.60;62.00
27266;DHT22;14766;51.380;13.762;2022-09-09T04:46:08;18.60;62.00
27266;DHT22;14766;51.380;13.762;2022-09-09T04:48:35;18.60;62.20
27266;DHT22;14766;51.380;13.762;2022-09-09T04:51:06;18.60;62.30
27266;DHT22;14766;51.380;13.762;2022-09-09T04:53:34;18.60;62.40
27266;DHT22;14766;51.380;13.762;2022-09-09T04:56:10;18.60;62.40
27266;DHT22;14766;51.380;13.762;2022-09-09T04:58:42;18.60;62.40
27266;DHT22;14766;51.380;13.762;2022-09-09T05:01:15;18.70;62.60
27266;DHT22;14766;51.380;13.762;2022-09-09T05:03:46;18.70;62.70
27266;DHT22;14766;51.380;13.762;2022-09-09T05:06:19;18.70;62.60
27266;DHT22;14766;51.380;13.762;2022-09-09T05:08:48;18.70;62.60
27266;DHT22;14766;51.380;13.762;2022-09-09T05:11:26;18.70;62.70
27266;DHT22;14766;51.380;13.762;2022-09-09T05:13:59;18.70;62.70
27266;DHT22;14766;51.380;13.762;2022-09-09T05:16:29;18.70;62.70
27266;DHT22;14766;51.380;13.762;2022-09-09T05:18:57;18.70;62.70
27266;DHT22;14766;51.380;13.762;2022-09-09T05:21:25;18.80;62.60
27266;DHT22;14766;51.380;13.762;2022-09-09T05:23:53;18.80;62.50
27266;DHT22;14766;51.380;13.762;2022-09-09T05:26:22;18.80;62.50
27266;DHT22;14766;51.380;13.762;2022-09-09T05:28:51;18.80;62.50
27266;DHT22;14766;51.380;13.762;2022-09-09T05:31:19;18.80;62.60
27266;DHT22;14766;51.380;13.762;2022-09-09T05:33:50;18.90;62.70
27266;DHT22;14766;51.380;13.762;2022-09-09T05:36:20;18.90;62.50
27266;DHT22;14766;51.380;13.762;2022-09-09T05:38:52;19.00;62.50
27266;DHT22;14766;51.380;13.762;2022-09-09T05:41:21;19.00;62.60
27266;DHT22;14766;51.380;13.762;2022-09-09T05:43:52;19.10;62.60
27266;DHT22;14766;51.380;13.762;2022-09-09T05:46:22;19.20;62.60
27266;DHT22;14766;51.380;13.762;2022-09-09T05:48:51;19.30;62.70
27266;DHT22;14766;51.380;13.762;2022-09-09T05:51:27;19.30;62.30
27266;DHT22;14766;51.380;13.762;2022-09-09T05:53:59;19.40;62.20
27266;DHT22;14766;51.380;13.762;2022-09-09T05:56:30;19.40;62.20
27266;DHT22;14766;51.380;13.762;2022-09-09T05:58:59;19.50;61.90
27266;DHT22;14766;51.380;13.762;2022-09-09T06:01:32;19.60;61.80
27266;DHT22;14766;51.380;13.762;2022-09-09T06:04:02;19.60;61.70
27266;DHT22;14766;51.380;13.762;2022-09-09T06:06:33;19.70;61.80
27266;DHT22;14766;51.380;13.762;2022-09-09T06:09:09;19.80;61.80
27266;DHT22;14766;51.380;13.762;2022-09-09T06:11:40;19.80;61.70
27266;DHT22;14766;51.380;13.762;2022-09-09T06:14:08;19.90;61.40
27266;DHT22;14766;51.380;13.762;2022-09-09T06:16:36;20.00;61.20
27266;DHT22;14766;51.380;13.762;2022-09-09T06:19:22;20.10;60.90
27266;DHT22;14766;51.380;13.762;2022-09-09T06:21:51;20.10;60.60
27266;DHT22;14766;51.380;13.762;2022-09-09T06:24:18;20.20;60.40
27266;DHT22;14766;51.380;13.762;2022-09-09T06:26:48;20.20;60.30
27266;DHT22;14766;51.380;13.762;2022-09-09T06:29:21;20.20;60.10
27266;DHT22;14766;51.380;13.762;2022-09-09T06:31:50;20.30;60.00
27266;DHT22;14766;51.380;13.762;2022-09-09T06:34:23;20.40;60.10
27266;DHT22;14766;51.380;13.762;2022-09-09T06:36:54;20.50;60.00
27266;DHT22;14766;51.380;13.762;2022-09-09T06:39:27;20.50;59.40
27266;DHT22;14766;51.380;13.762;2022-09-09T06:41:54;20.60;59.70
27266;DHT22;14766;51.380;13.762;2022-09-09T06:44:42;20.70;59.70
27266;DHT22;14766;51.380;13.762;2022-09-09T06:47:14;20.80;59.80
27266;DHT22;14766;51.380;13.762;2022-09-09T06:49:42;20.90;59.50
27266;DHT22;14766;51.380;13.762;2022-09-09T06:52:15;21.10;59.90
27266;DHT22;14766;51.380;13.762;2022-09-09T06:54:46;21.30;60.00
27266;DHT22;14766;51.380;13.762;2022-09-09T06:57:15;21.50;60.10
27266;DHT22;14766;51.380;13.762;2022-09-09T07:00:03;21.80;60.10
27266;DHT22;14766;51.380;13.762;2022-09-09T07:02:30;22.30;59.90
27266;DHT22;14766;51.380;13.762;2022-09-09T07:04:57;22.70;59.50
27266;DHT22;14766;51.380;13.762;2022-09-09T07:07:26;23.20;58.90
27266;DHT22;14766;51.380;13.762;2022-09-09T07:09:55;23.60;57.70
27266;DHT22;14766;51.380;13.762;2022-09-09T07:12:23;24.10;56.70
27266;DHT22;14766;51.380;13.762;2022-09-09T07:14:56;24.60;56.00
27266;DHT22;14766;51.380;13.762;2022-09-09T07:17:24;25.10;54.20
27266;DHT22;14766;51.380;13.762;2022-09-09T07:19:51;25.50;52.60
27266;DHT22;14766;51.380;13.762;2022-09-09T07:22:20;25.70;51.50
27266;DHT22;14766;51.380;13.762;2022-09-09T07:24:47;26.00;50.80
27266;DHT22;14766;51.380;13.762;2022-09-09T07:27:15;26.20;49.80
27266;DHT22;14766;51.380;13.762;2022-09-09T07:29:43;26.40;49.30
27266;DHT22;14766;51.380;13.762;2022-09-09T07:32:13;26.40;49.20
27266;DHT22;14766;51.380;13.762;2022-09-09T07:34:41;26.50;49.10
27266;DHT22;14766;51.380;13.762;2022-09-09T07:37:09;26.60;48.70
27266;DHT22;14766;51.380;13.762;2022-09-09T07:39:41;26.60;47.80
27266;DHT22;14766;51.380;13.762;2022-09-09T07:42:09;26.80;48.20
27266;DHT22;14766;51.380;13.762;2022-09-09T07:44:40;27.00;48.80
27266;DHT22;14766;51.380;13.762;2022-09-09T07:47:12;27.30;47.80
27266;DHT22;14766;51.380;13.762;2022-09-09T07:49:43;27.50;46.60
27266;DHT22;14766;51.380;13.762;2022-09-09T07:52:16;27.80;46.10
27266;DHT22;14766;51.380;13.762;2022-09-09T07:54:50;27.90;46.10
27266;DHT22;14766;51.380;13.762;2022-09-09T07:57:17;27.90;44.80
27266;DHT22;14766;51.380;13.762;2022-09-09T07:59:46;27.80;44.50
27266;DHT22;14766;51.380;13.762;2022-09-09T08:02:13;27.60;44.30
27266;DHT22;14766;51.380;13.762;2022-09-09T08:04:41;27.50;44.50
27266;DHT22;14766;51.380;13.762;2022-09-09T08:07:10;27.30;44.40
27266;DHT22;14766;51.380;13.762;2022-09-09T08:09:45;27.10;45.10
27266;DHT22;14766;51.380;13.762;2022-09-09T08:12:21;26.90;45.40
27266;DHT22;14766;51.380;13.762;2022-09-09T08:14:49;26.80;46.10
27266;DHT22;14766;51.380;13.762;2022-09-09T08:17:16;26.70;45.80
27266;DHT22;14766;51.380;13.762;2022-09-09T08:19:43;26.60;45.50
27266;DHT22;14766;51.380;13.762;2022-09-09T08:22:17;26.40;45.30
27266;DHT22;14766;51.380;13.762;2022-09-09T08:24:45;26.20;46.00
27266;DHT22;14766;51.380;13.762;2022-09-09T08:27:14;26.00;46.50
27266;DHT22;14766;51.380;13.762;2022-09-09T08:29:41;25.80;47.40
27266;DHT22;14766;51.380;13.762;2022-09-09T08:32:09;25.60;48.40
27266;DHT22;14766;51.380;13.762;2022-09-09T08:34:38;25.40;49.40
27266;DHT22;14766;51.380;13.762;2022-09-09T08:37:11;25.20;50.70
27266;DHT22;14766;51.380;13.762;2022-09-09T08:39:40;25.00;50.80
27266;DHT22;14766;51.380;13.762;2022-09-09T08:42:31;25.00;51.50
27266;DHT22;14766;51.380;13.762;2022-09-09T08:45:35;24.80;52.60
27266;DHT22;14766;51.380;13.762;2022-09-09T08:48:21;24.80;53.50
27266;DHT22;14766;51.380;13.762;2022-09-09T08:50:53;24.80;54.20
27266;DHT22;14766;51.380;13.762;2022-09-09T08:53:40;24.90;55.10
27266;DHT22;14766;51.380;13.762;2022-09-09T08:56:14;25.10;55.60
27266;DHT22;14766;51.380;13.762;2022-09-09T08:58:48;25.40;55.30
27266;DHT22;14766;51.380;13.762;2022-09-09T09:08:05;26.50;51.70
27266;DHT22;14766;51.380;13.762;2022-09-09T09:10:47;26.50;49.90
27266;DHT22;14766;51.380;13.762;2022-09-09T09:19:23;26.30;48.20
27266;DHT22;14766;51.380;13.762;2022-09-09T09:22:02;26.10;48.50
27266;DHT22;14766;51.380;13.762;2022-09-09T09:24:35;25.90;49.20
27266;DHT22;14766;51.380;13.762;2022-09-09T09:27:14;25.80;50.50
27266;DHT22;14766;51.380;13.762;2022-09-09T09:29:49;25.60;50.90
27266;DHT22;14766;51.380;13.762;2022-09-09T09:32:39;25.50;50.80
27266;DHT22;14766;51.380;13.762;2022-09-09T09:35:12;25.30;50.70
27266;DHT22;14766;51.380;13.762;2022-09-09T09:37:41;25.20;50.90
27266;DHT22;14766;51.380;13.762;2022-09-09T09:40:33;25.00;50.70
27266;DHT22;14766;51.380;13.762;2022-09-09T09:43:02;24.90;51.40
27266;DHT22;14766;51.380;13.762;2022-09-09T09:45:41;24.80;52.60
27266;DHT22;14766;51.380;13.762;2022-09-09T09:48:32;24.60;53.00
27266;DHT22;14766;51.380;13.762;2022-09-09T09:51:08;24.40;53.70
27266;DHT22;14766;51.380;13.762;2022-09-09T09:53:39;24.20;54.20
27266;DHT22;14766;51.380;13.762;2022-09-09T09:56:12;24.00;54.70
27266;DHT22;14766;51.380;13.762;2022-09-09T10:01:25;23.60;55.30
27266;DHT22;14766;51.380;13.762;2022-09-09T10:04:20;23.40;55.80
27266;DHT22;14766;51.380;13.762;2022-09-09T10:06:52;23.20;56.70
27266;DHT22;14766;51.380;13.762;2022-09-09T10:09:29;23.10;56.50
27266;DHT22;14766;51.380;13.762;2022-09-09T10:36:47;22.50;59.80
27266;DHT22;14766;51.380;13.762;2022-09-09T10:42:07;22.60;59.60
27266;DHT22;14766;51.380;13.762;2022-09-09T10:47:29;22.70;61.30
27266;DHT22;14766;51.380;13.762;2022-09-09T10:56:02;23.30;63.50
27266;DHT22;14766;51.380;13.762;2022-09-09T11:01:24;24.00;63.00
27266;DHT22;14766;51.380;13.762;2022-09-09T11:04:39;24.40;60.60
27266;DHT22;14766;51.380;13.762;2022-09-09T11:07:10;24.80;58.60
27266;DHT22;14766;51.380;13.762;2022-09-09T11:09:45;25.10;57.40
27266;DHT22;14766;51.380;13.762;2022-09-09T11:12:18;25.40;57.20
27266;DHT22;14766;51.380;13.762;2022-09-09T11:14:59;25.60;56.40
27266;DHT22;14766;51.380;13.762;2022-09-09T11:17:44;25.90;55.70
27266;DHT22;14766;51.380;13.762;2022-09-09T11:20:14;26.10;54.10
27266;DHT22;14766;51.380;13.762;2022-09-09T11:22:51;26.30;53.00
27266;DHT22;14766;51.380;13.762;2022-09-09T11:25:27;26.50;52.90
27266;DHT22;14766;51.380;13.762;2022-09-09T11:30:58;26.80;50.60
27266;DHT22;14766;51.380;13.762;2022-09-09T11:33:48;26.90;50.10
27266;DHT22;14766;51.380;13.762;2022-09-09T11:39:28;27.10;49.40
27266;DHT22;14766;51.380;13.762;2022-09-09T11:44:41;27.30;49.40
27266;DHT22;14766;51.380;13.762;2022-09-09T11:47:27;27.40;49.60
27266;DHT22;14766;51.380;13.762;2022-09-09T11:50:34;27.50;48.10
27266;DHT22;14766;51.380;13.762;2022-09-09T11:55:41;27.60;48.00
27266;DHT22;14766;51.380;13.762;2022-09-09T12:00:43;27.70;48.00
27266;DHT22;14766;51.380;13.762;2022-09-09T12:03:44;27.70;48.60
27266;DHT22;14766;51.380;13.762;2022-09-09T12:06:28;27.70;47.30
27266;DHT22;14766;51.380;13.762;2022-09-09T12:09:17;27.70;47.60
27266;DHT22;14766;51.380;13.762;2022-09-09T12:11:45;27.70;47.60
27266;DHT22;14766;51.380;13.762;2022-09-09T12:17:20;27.60;47.30
27266;DHT22;14766;51.380;13.762;2022-09-09T12:19:48;27.70;47.80
27266;DHT22;14766;51.380;13.762;2022-09-09T12:25:16;27.70;48.20
27266;DHT22;14766;51.380;13.762;2022-09-09T12:27:59;27.70;47.40
27266;DHT22;14766;51.380;13.762;2022-09-09T12:30:34;27.70;47.10
27266;DHT22;14766;51.380;13.762;2022-09-09T12:33:11;27.60;46.70
27266;DHT22;14766;51.380;13.762;2022-09-09T12:35:42;27.50;46.20
27266;DHT22;14766;51.380;13.762;2022-09-09T12:38:20;27.40;46.20
27266;DHT22;14766;51.380;13.762;2022-09-09T12:40:56;27.20;46.30
27266;DHT22;14766;51.380;13.762;2022-09-09T12:43:26;27.10;46.80
27266;DHT22;14766;51.380;13.762;2022-09-09T12:46:00;26.90;47.00
27266;DHT22;14766;51.380;13.762;2022-09-09T12:48:36;26.70;48.30
27266;DHT22;14766;51.380;13.762;2022-09-09T12:51:16;26.50;49.40
27266;DHT22;14766;51.380;13.762;2022-09-09T12:53:45;26.30;51.30
27266;DHT22;14766;51.380;13.762;2022-09-09T12:56:24;26.10;52.20
27266;DHT22;14766;51.380;13.762;2022-09-09T12:58:57;25.90;53.20
27266;DHT22;14766;51.380;13.762;2022-09-09T13:01:30;25.70;54.10
27266;DHT22;14766;51.380;13.762;2022-09-09T13:03:58;25.50;54.90
27266;DHT22;14766;51.380;13.762;2022-09-09T13:06:31;25.40;55.60
27266;DHT22;14766;51.380;13.762;2022-09-09T13:09:00;25.30;56.30
27266;DHT22;14766;51.380;13.762;2022-09-09T13:13:59;25.10;57.10
27266;DHT22;14766;51.380;13.762;2022-09-09T13:16:31;25.00;57.50
27266;DHT22;14766;51.380;13.762;2022-09-09T13:19:09;25.00;58.30
27266;DHT22;14766;51.380;13.762;2022-09-09T13:21:38;25.00;58.00
27266;DHT22;14766;51.380;13.762;2022-09-09T13:24:29;25.00;57.30
27266;DHT22;14766;51.380;13.762;2022-09-09T13:26:58;25.00;58.10
27266;DHT22;14766;51.380;13.762;2022-09-09T13:29:25;25.00;56.90
27266;DHT22;14766;51.380;13.762;2022-09-09T13:31:53;25.10;56.90
27266;DHT22;14766;51.380;13.762;2022-09-09T13:34:32;25.10;56.60
27266;DHT22;14766;51.380;13.762;2022-09-09T13:37:04;25.20;56.10
27266;DHT22;14766;51.380;13.762;2022-09-09T13:39:35;25.20;55.60
27266;DHT22;14766;51.380;13.762;2022-09-09T13:42:04;25.20;55.30
27266;DHT22;14766;51.380;13.762;2022-09-09T13:44:38;25.30;54.70
27266;DHT22;14766;51.380;13.762;2022-09-09T13:47:18;25.40;55.30
27266;DHT22;14766;51.380;13.762;2022-09-09T13:49:46;25.40;55.50
27266;DHT22;14766;51.380;13.762;2022-09-09T13:52:17;25.40;55.90
27266;DHT22;14766;51.380;13.762;2022-09-09T13:54:49;25.50;55.70
27266;DHT22;14766;51.380;13.762;2022-09-09T13:57:23;25.60;56.00
27266;DHT22;14766;51.380;13.762;2022-09-09T13:59:53;25.60;56.10
27266;DHT22;14766;51.380;13.762;2022-09-09T14:02:32;25.60;56.00
27266;DHT22;14766;51.380;13.762;2022-09-09T14:05:00;25.60;56.00
27266;DHT22;14766;51.380;13.762;2022-09-09T14:07:27;25.70;55.10
27266;DHT22;14766;51.380;13.762;2022-09-09T14:09:55;25.70;55.20
27266;DHT22;14766;51.380;13.762;2022-09-09T14:12:24;25.80;55.00
27266;DHT22;14766;51.380;13.762;2022-09-09T14:14:52;25.70;54.50
27266;DHT22;14766;51.380;13.762;2022-09-09T14:17:20;25.70;54.30
27266;DHT22;14766;51.380;13.762;2022-09-09T14:19:49;25.70;54.40
27266;DHT22;14766;51.380;13.762;2022-09-09T14:22:18;25.70;54.40
27266;DHT22;14766;51.380;13.762;2022-09-09T14:24:45;25.70;54.40
27266;DHT22;14766;51.380;13.762;2022-09-09T14:27:14;25.70;54.30
27266;DHT22;14766;51.380;13.762;2022-09-09T14:29:41;25.70;54.60
27266;DHT22;14766;51.380;13.762;2022-09-09T14:32:11;25.70;54.10
27266;DHT22;14766;51.380;13.762;2022-09-09T14:34:40;25.70;52.50
27266;DHT22;14766;51.380;13.762;2022-09-09T14:37:07;25.70;52.20
27266;DHT22;14766;51.380;13.762;2022-09-09T14:39:34;25.80;51.60
27266;DHT22;14766;51.380;13.762;2022-09-09T14:42:02;25.80;51.30
27266;DHT22;14766;51.380;13.762;2022-09-09T14:44:29;25.80;51.00
27266;DHT22;14766;51.380;13.762;2022-09-09T14:46:56;25.80;50.30
27266;DHT22;14766;51.380;13.762;2022-09-09T14:49:25;25.80;50.10
27266;DHT22;14766;51.380;13.762;2022-09-09T14:51:52;25.80;50.00
27266;DHT22;14766;51.380;13.762;2022-09-09T14:54:19;25.90;50.50
27266;DHT22;14766;51.380;13.762;2022-09-09T14:56:48;25.80;50.30
27266;DHT22;14766;51.380;13.762;2022-09-09T14:59:16;25.90;50.20
27266;DHT22;14766;51.380;13.762;2022-09-09T15:01:45;25.80;50.10
27266;DHT22;14766;51.380;13.762;2022-09-09T15:04:13;25.80;50.10
27266;DHT22;14766;51.380;13.762;2022-09-09T15:06:43;25.80;50.30
27266;DHT22;14766;51.380;13.762;2022-09-09T15:09:16;25.80;50.40
27266;DHT22;14766;51.380;13.762;2022-09-09T15:11:44;25.80;50.50
27266;DHT22;14766;51.380;13.762;2022-09-09T15:14:11;25.80;50.70
27266;DHT22;14766;51.380;13.762;2022-09-09T15:16:40;25.80;50.30
27266;DHT22;14766;51.380;13.762;2022-09-09T15:19:07;25.80;50.40
27266;DHT22;14766;51.380;13.762;2022-09-09T15:21:37;25.70;50.40
27266;DHT22;14766;51.380;13.762;2022-09-09T15:24:05;25.80;50.40
27266;DHT22;14766;51.380;13.762;2022-09-09T15:26:37;25.70;50.40
27266;DHT22;14766;51.380;13.762;2022-09-09T15:29:06;25.70;50.40
27266;DHT22;14766;51.380;13.762;2022-09-09T15:31:35;25.70;50.20
27266;DHT22;14766;51.380;13.762;2022-09-09T15:34:06;25.70;50.10
27266;DHT22;14766;51.380;13.762;2022-09-09T15:36:34;25.70;50.10
27266;DHT22;14766;51.380;13.762;2022-09-09T15:39:08;25.70;50.20
27266;DHT22;14766;51.380;13.762;2022-09-09T15:41:40;25.70;49.80
27266;DHT22;14766;51.380;13.762;2022-09-09T15:44:09;25.70;49.90
27266;DHT22;14766;51.380;13.762;2022-09-09T15:46:44;25.70;50.10
27266;DHT22;14766;51.380;13.762;2022-09-09T15:49:18;25.60;50.40
27266;DHT22;14766;51.380;13.762;2022-09-09T15:51:51;25.60;50.60
27266;DHT22;14766;51.380;13.762;2022-09-09T15:54:19;25.60;50.60
27266;DHT22;14766;51.380;13.762;2022-09-09T15:56:54;25.60;51.30
27266;DHT22;14766;51.380;13.762;2022-09-09T15:59:27;25.60;50.80
27266;DHT22;14766;51.380;13.762;2022-09-09T16:01:55;25.50;51.20
27266;DHT22;14766;51.380;13.762;2022-09-09T16:04:24;25.50;51.10
27266;DHT22;14766;51.380;13.762;2022-09-09T16:07:05;25.50;51.40
27266;DHT22;14766;51.380;13.762;2022-09-09T16:09:33;25.40;51.40
27266;DHT22;14766;51.380;13.762;2022-09-09T16:12:03;25.40;51.70
27266;DHT22;14766;51.380;13.762;2022-09-09T16:14:34;25.40;52.00
27266;DHT22;14766;51.380;13.762;2022-09-09T16:17:03;25.40;52.10
27266;DHT22;14766;51.380;13.762;2022-09-09T16:19:32;25.30;52.60
27266;DHT22;14766;51.380;13.762;2022-09-09T16:21:59;25.30;52.80
27266;DHT22;14766;51.380;13.762;2022-09-09T16:24:27;25.20;52.90
27266;DHT22;14766;51.380;13.762;2022-09-09T16:26:54;25.20;52.90
27266;DHT22;14766;51.380;13.762;2022-09-09T16:29:22;25.20;52.90
27266;DHT22;14766;51.380;13.762;2022-09-09T16:31:51;25.20;53.00
27266;DHT22;14766;51.380;13.762;2022-09-09T16:34:21;25.10;53.10
27266;DHT22;14766;51.380;13.762;2022-09-09T16:36:49;25.00;53.30
27266;DHT22;14766;51.380;13.762;2022-09-09T16:39:18;25.00;53.70
27266;DHT22;14766;51.380;13.762;2022-09-09T16:41:48;25.00;53.90
27266;DHT22;14766;51.380;13.762;2022-09-09T16:44:17;24.90;54.30
27266;DHT22;14766;51.380;13.762;2022-09-09T16:46:47;24.90;54.50
27266;DHT22;14766;51.380;13.762;2022-09-09T16:49:16;24.80;54.60
27266;DHT22;14766;51.380;13.762;2022-09-09T16:51:49;24.80;54.80
27266;DHT22;14766;51.380;13.762;2022-09-09T16:54:21;24.70;54.90
27266;DHT22;14766;51.380;13.762;2022-09-09T16:56:52;24.70;55.20
27266;DHT22;14766;51.380;13.762;2022-09-09T16:59:21;24.60;54.90
27266;DHT22;14766;51.380;13.762;2022-09-09T17:01:50;24.60;55.00
27266;DHT22;14766;51.380;13.762;2022-09-09T17:04:24;24.60;55.30
27266;DHT22;14766;51.380;13.762;2022-09-09T17:06:55;24.50;55.30
27266;DHT22;14766;51.380;13.762;2022-09-09T17:09:25;24.40;55.00
27266;DHT22;14766;51.380;13.762;2022-09-09T17:11:57;24.40;54.40
27266;DHT22;14766;51.380;13.762;2022-09-09T17:14:24;24.40;54.50
27266;DHT22;14766;51.380;13.762;2022-09-09T17:16:51;24.30;54.60
27266;DHT22;14766;51.380;13.762;2022-09-09T17:19:18;24.30;54.50
27266;DHT22;14766;51.380;13.762;2022-09-09T17:21:45;24.30;54.70
27266;DHT22;14766;51.380;13.762;2022-09-09T17:24:35;24.30;54.90
27266;DHT22;14766;51.380;13.762;2022-09-09T17:27:05;24.20;55.20
27266;DHT22;14766;51.380;13.762;2022-09-09T17:29:33;24.20;54.70
27266;DHT22;14766;51.380;13.762;2022-09-09T17:32:03;24.10;54.30
27266;DHT22;14766;51.380;13.762;2022-09-09T17:34:32;24.10;54.00